createdAt,value
2017-07-26T00:01:24.098Z,96.90
2017-07-26T00:03:52.183Z,96.60
2017-07-26T00:06:20.275Z,96.60
2017-07-26T00:08:48.331Z,96.50
2017-07-26T00:11:16.419Z,96.60
2017-07-26T00:13:44.654Z,96.50
2017-07-26T00:16:12.743Z,96.40
2017-07-26T00:18:40.826Z,96.50
2017-07-26T00:21:08.868Z,96.20
2017-07-26T00:23:36.950Z,96.50
2017-07-26T00:26:05.006Z,96.80
2017-07-26T00:28:33.114Z,96.50
2017-07-26T00:31:01.156Z,96.50
2017-07-26T00:33:29.238Z,96.30
2017-07-26T00:35:57.293Z,96.50
2017-07-26T00:38:25.361Z,96.50
2017-07-26T00:40:53.430Z,96.70
2017-07-26T00:43:21.499Z,96.70
2017-07-26T00:45:49.571Z,96.20
2017-07-26T00:48:17.659Z,96.10
2017-07-26T00:50:45.722Z,96.50
2017-07-26T00:53:13.812Z,96.50
2017-07-26T00:55:41.869Z,96.30
2017-07-26T00:58:09.931Z,96.10
2017-07-26T01:00:38.009Z,96.00
2017-07-26T01:03:06.070Z,96.10
2017-07-26T01:05:34.162Z,96.30
2017-07-26T01:08:02.250Z,96.30
2017-07-26T01:10:31.092Z,96.40
2017-07-26T01:12:59.171Z,96.40
2017-07-26T01:15:27.281Z,96.40
2017-07-26T01:17:55.335Z,96.70
2017-07-26T01:20:23.396Z,96.90
2017-07-26T01:22:51.483Z,96.70
2017-07-26T01:25:19.551Z,96.70
2017-07-26T01:27:47.644Z,96.50
2017-07-26T01:30:15.694Z,96.60
2017-07-26T01:32:43.766Z,96.80
2017-07-26T01:35:11.843Z,96.80
2017-07-26T01:37:39.914Z,97.20
2017-07-26T01:40:07.984Z,97.30
2017-07-26T01:42:36.066Z,97.30
2017-07-26T01:45:04.134Z,97.20
2017-07-26T01:47:32.200Z,97.10
2017-07-26T01:50:00.268Z,96.90
2017-07-26T01:52:28.338Z,96.90
2017-07-26T01:54:56.411Z,96.90
2017-07-26T01:57:24.491Z,96.60
2017-07-26T01:59:52.563Z,96.30
2017-07-26T02:02:20.627Z,96.00
2017-07-26T02:04:48.694Z,96.20
2017-07-26T02:07:16.767Z,96.00
2017-07-26T02:09:44.834Z,95.80
2017-07-26T02:12:12.931Z,96.30
2017-07-26T02:14:40.994Z,96.10
2017-07-26T02:17:09.053Z,96.30
2017-07-26T02:19:37.128Z,96.20
2017-07-26T02:22:05.199Z,96.20
2017-07-26T02:24:33.284Z,96.40
2017-07-26T02:27:01.349Z,96.20
2017-07-26T02:29:29.435Z,96.20
2017-07-26T02:31:57.502Z,96.30
2017-07-26T02:34:27.047Z,96.40
2017-07-26T02:36:55.123Z,96.50
2017-07-26T02:39:23.174Z,96.70
2017-07-26T02:41:52.003Z,96.40
2017-07-26T02:44:20.099Z,96.40
2017-07-26T02:46:48.178Z,96.30
2017-07-26T02:49:16.242Z,96.20
2017-07-26T02:51:44.312Z,96.20
2017-07-26T02:54:12.389Z,96.00
2017-07-26T02:56:40.459Z,95.90
2017-07-26T02:59:08.514Z,96.10
2017-07-26T03:01:36.586Z,96.10
2017-07-26T03:04:04.669Z,96.00
2017-07-26T03:06:32.741Z,96.20
2017-07-26T03:09:00.788Z,96.20
2017-07-26T03:11:28.880Z,96.10
2017-07-26T03:13:56.942Z,96.10
2017-07-26T03:16:25.006Z,96.30
2017-07-26T03:18:53.086Z,96.10
2017-07-26T03:21:21.163Z,96.20
2017-07-26T03:23:49.238Z,96.10
2017-07-26T03:26:17.308Z,96.20
2017-07-26T03:28:45.379Z,96.20
2017-07-26T03:31:13.451Z,96.10
2017-07-26T03:33:41.590Z,95.90
2017-07-26T03:36:09.723Z,95.80
2017-07-26T03:38:37.798Z,95.60
2017-07-26T03:41:05.874Z,95.90
2017-07-26T03:43:33.934Z,95.80
2017-07-26T03:46:02.006Z,96.10
2017-07-26T03:48:30.068Z,96.20
2017-07-26T03:50:58.131Z,96.30
2017-07-26T03:53:26.219Z,96.30
2017-07-26T03:55:54.290Z,96.40
2017-07-26T03:58:22.359Z,96.40
2017-07-26T04:00:50.438Z,96.50
2017-07-26T04:03:18.515Z,96.30
2017-07-26T04:05:46.626Z,96.20
2017-07-26T04:08:14.684Z,96.00
2017-07-26T04:10:42.763Z,95.80
2017-07-26T04:13:10.834Z,95.60
2017-07-26T04:15:38.907Z,95.50
2017-07-26T04:18:06.979Z,95.40
2017-07-26T04:20:35.054Z,95.30
2017-07-26T04:23:03.119Z,95.20
2017-07-26T04:25:31.191Z,95.20
2017-07-26T04:27:59.263Z,95.20
2017-07-26T04:30:27.323Z,95.10
2017-07-26T04:32:55.384Z,95.10
2017-07-26T04:35:23.455Z,94.90
2017-07-26T04:37:51.527Z,95.20
2017-07-26T04:40:19.602Z,95.10
2017-07-26T04:42:47.686Z,95.60
2017-07-26T04:45:15.762Z,95.60
2017-07-26T04:47:43.843Z,95.70
2017-07-26T04:50:11.943Z,95.80
2017-07-26T04:52:40.003Z,95.80
2017-07-26T04:55:08.074Z,95.80
2017-07-26T04:57:37.031Z,95.60
2017-07-26T05:00:05.091Z,95.70
2017-07-26T05:02:33.176Z,95.60
2017-07-26T05:05:01.591Z,95.40
2017-07-26T05:07:29.647Z,95.10
2017-07-26T05:09:57.712Z,95.20
2017-07-26T05:12:25.814Z,95.00
2017-07-26T05:14:53.870Z,95.10
2017-07-26T05:17:21.930Z,95.20
2017-07-26T05:19:50.016Z,95.50
2017-07-26T05:22:18.083Z,95.60
2017-07-26T05:24:46.138Z,95.80
2017-07-26T05:27:14.219Z,95.70
2017-07-26T05:29:42.286Z,95.50
2017-07-26T05:32:10.367Z,95.70
2017-07-26T05:34:38.423Z,95.80
2017-07-26T05:37:06.477Z,95.70
2017-07-26T05:39:34.556Z,95.80
2017-07-26T05:42:02.623Z,95.90
2017-07-26T05:44:30.684Z,95.70
2017-07-26T05:46:58.766Z,95.80
2017-07-26T05:49:26.835Z,95.70
2017-07-26T05:51:54.934Z,95.50
2017-07-26T05:54:23.006Z,95.40
2017-07-26T05:56:51.070Z,95.10
2017-07-26T05:59:19.153Z,95.20
2017-07-26T06:01:47.202Z,95.00
2017-07-26T06:04:15.251Z,94.70
2017-07-26T06:06:43.345Z,94.40
2017-07-26T06:09:11.401Z,94.60
2017-07-26T06:11:39.463Z,94.70
2017-07-26T06:14:07.535Z,94.70
2017-07-26T06:16:35.608Z,94.50
2017-07-26T06:19:03.670Z,94.50
2017-07-26T06:21:31.739Z,94.30
2017-07-26T06:23:59.829Z,94.00
2017-07-26T06:26:27.887Z,94.40
2017-07-26T06:28:55.958Z,94.00
2017-07-26T06:31:24.030Z,93.60
2017-07-26T06:33:52.085Z,93.50
2017-07-26T06:36:20.163Z,93.40
2017-07-26T06:38:48.218Z,93.00
2017-07-26T06:41:16.294Z,92.60
2017-07-26T06:43:44.371Z,92.40
2017-07-26T06:46:12.442Z,91.80
2017-07-26T06:48:40.529Z,92.90
2017-07-26T06:51:08.604Z,92.30
2017-07-26T06:53:36.669Z,91.90
2017-07-26T06:56:04.738Z,92.00
2017-07-26T06:58:32.800Z,93.00
2017-07-26T07:01:00.883Z,92.70
2017-07-26T07:03:28.958Z,92.40
2017-07-26T07:05:57.024Z,91.90
2017-07-26T07:08:25.112Z,92.10
2017-07-26T07:10:53.162Z,91.10
2017-07-26T07:13:21.230Z,90.20
2017-07-26T07:15:49.296Z,90.60
2017-07-26T07:18:17.373Z,91.00
2017-07-26T07:20:45.458Z,91.80
2017-07-26T07:23:13.523Z,90.90
2017-07-26T07:25:41.590Z,90.70
2017-07-26T07:28:09.667Z,91.50
2017-07-26T07:30:37.767Z,91.20
2017-07-26T07:33:05.858Z,91.70
2017-07-26T07:35:34.671Z,91.90
2017-07-26T07:38:02.753Z,91.90
2017-07-26T07:40:30.831Z,90.80
2017-07-26T07:42:58.894Z,90.00
2017-07-26T07:45:26.967Z,90.10
2017-07-26T07:47:55.042Z,89.70
2017-07-26T07:50:23.136Z,90.10
2017-07-26T07:52:51.192Z,90.10
2017-07-26T07:55:19.268Z,90.00
2017-07-26T07:57:47.320Z,90.50
2017-07-26T08:00:15.394Z,91.10
2017-07-26T08:02:43.463Z,91.00
2017-07-26T08:05:11.538Z,91.10
2017-07-26T08:07:39.622Z,91.30
2017-07-26T08:10:07.686Z,91.60
2017-07-26T08:12:35.754Z,91.80
2017-07-26T08:15:03.828Z,90.50
2017-07-26T08:17:31.915Z,90.20
2017-07-26T08:19:59.998Z,87.20
2017-07-26T08:22:28.247Z,87.80
2017-07-26T08:24:56.291Z,86.20
2017-07-26T08:27:24.356Z,83.10
2017-07-26T08:29:53.178Z,83.50
2017-07-26T08:32:21.267Z,83.40
2017-07-26T08:34:49.331Z,82.10
2017-07-26T08:37:17.383Z,83.30
2017-07-26T08:39:46.244Z,84.00
2017-07-26T08:42:18.058Z,84.00
2017-07-26T08:44:46.163Z,86.10
2017-07-26T08:47:14.225Z,86.50
2017-07-26T08:49:42.291Z,86.10
2017-07-26T08:52:10.373Z,84.60
2017-07-26T08:54:38.615Z,83.10
2017-07-26T08:57:06.699Z,84.20
2017-07-26T08:59:34.766Z,82.90
2017-07-26T09:02:02.830Z,84.90
2017-07-26T09:04:30.915Z,83.10
2017-07-26T09:06:59.001Z,81.10
2017-07-26T09:09:27.051Z,76.30
2017-07-26T09:11:55.109Z,75.00
2017-07-26T09:14:23.178Z,78.30
2017-07-26T09:16:51.263Z,76.80
2017-07-26T09:19:19.356Z,79.40
2017-07-26T09:21:47.418Z,81.20
2017-07-26T09:24:15.479Z,80.10
2017-07-26T09:26:43.549Z,78.70
2017-07-26T09:29:11.587Z,73.10
2017-07-26T09:31:40.424Z,66.30
2017-07-26T09:34:08.497Z,66.20
2017-07-26T09:36:36.550Z,64.90
2017-07-26T09:39:04.626Z,67.50
2017-07-26T09:41:33.463Z,59.40
2017-07-26T09:44:01.530Z,59.40
2017-07-26T09:46:29.590Z,59.60
2017-07-26T09:48:57.791Z,58.50
2017-07-26T09:51:25.874Z,62.30
2017-07-26T09:53:53.960Z,59.00
2017-07-26T09:56:22.006Z,54.80
2017-07-26T09:58:50.065Z,51.60
2017-07-26T10:01:18.127Z,47.60
2017-07-26T10:03:46.211Z,48.70
2017-07-26T10:06:14.275Z,50.40
2017-07-26T10:08:42.330Z,52.20
2017-07-26T10:11:11.039Z,53.70
2017-07-26T10:13:39.106Z,49.60
2017-07-26T10:16:07.169Z,49.60
2017-07-26T10:18:35.241Z,52.90
2017-07-26T10:21:03.304Z,54.90
2017-07-26T10:23:31.372Z,57.70
2017-07-26T10:25:59.467Z,59.30
2017-07-26T10:28:27.526Z,56.30
2017-07-26T10:30:55.592Z,50.80
2017-07-26T10:33:23.643Z,47.00
2017-07-26T10:35:51.727Z,45.20
2017-07-26T10:38:19.783Z,46.50
2017-07-26T10:40:47.844Z,46.60
2017-07-26T10:43:15.924Z,48.90
2017-07-26T10:45:43.986Z,49.80
2017-07-26T10:48:12.031Z,51.90
2017-07-26T10:50:40.871Z,46.50
2017-07-26T10:53:09.759Z,46.40
2017-07-26T10:55:37.835Z,43.80
2017-07-26T10:58:05.895Z,43.30
2017-07-26T11:00:33.960Z,39.10
2017-07-26T11:03:02.040Z,40.60
2017-07-26T11:05:30.091Z,44.90
2017-07-26T11:07:58.176Z,45.60
2017-07-26T11:10:26.241Z,43.50
2017-07-26T11:12:54.301Z,44.40
2017-07-26T11:15:22.376Z,41.10
2017-07-26T11:17:50.459Z,39.70
2017-07-26T11:20:18.526Z,35.70
2017-07-26T11:22:46.595Z,38.00
2017-07-26T11:25:14.683Z,39.50
2017-07-26T11:27:42.738Z,38.40
2017-07-26T11:30:10.795Z,38.10
2017-07-26T11:32:38.867Z,34.90
2017-07-26T11:35:06.935Z,33.30
2017-07-26T11:37:34.986Z,32.80
2017-07-26T11:40:03.855Z,32.60
2017-07-26T11:42:31.900Z,32.60
2017-07-26T11:44:59.953Z,33.00
2017-07-26T11:47:28.794Z,32.20
2017-07-26T11:49:56.847Z,32.10
2017-07-26T11:52:24.903Z,31.90
2017-07-26T11:54:52.999Z,30.70
2017-07-26T11:57:21.052Z,31.70
2017-07-26T11:59:49.110Z,35.70
2017-07-26T12:02:17.196Z,39.40
2017-07-26T12:04:45.262Z,40.30
2017-07-26T12:07:13.308Z,43.50
2017-07-26T12:09:42.143Z,47.30
2017-07-26T12:12:10.219Z,47.20
2017-07-26T12:14:38.283Z,48.20
2017-07-26T12:17:06.363Z,50.60
2017-07-26T12:19:34.407Z,51.50
2017-07-26T12:22:02.480Z,53.60
2017-07-26T12:24:30.553Z,53.10
2017-07-26T12:26:58.615Z,53.70
2017-07-26T12:29:26.694Z,53.00
2017-07-26T12:31:54.760Z,55.60
2017-07-26T12:34:22.834Z,56.20
2017-07-26T12:36:50.883Z,55.90
2017-07-26T12:39:19.718Z,55.20
2017-07-26T12:41:47.762Z,55.00
2017-07-26T12:44:15.807Z,55.30
2017-07-26T12:46:44.642Z,54.10
2017-07-26T12:49:12.707Z,54.60
2017-07-26T12:51:40.794Z,54.30
2017-07-26T12:54:08.838Z,53.20
2017-07-26T12:56:37.767Z,51.30
2017-07-26T12:59:05.853Z,50.20
2017-07-26T13:01:33.919Z,50.60
2017-07-26T13:04:01.999Z,50.50
2017-07-26T13:06:30.066Z,51.20
2017-07-26T13:08:58.200Z,49.50
2017-07-26T13:11:26.268Z,50.30
2017-07-26T13:13:54.336Z,49.50
2017-07-26T13:16:22.413Z,50.80
2017-07-26T13:18:50.471Z,50.90
2017-07-26T13:21:18.532Z,50.30
2017-07-26T13:23:46.607Z,50.90
2017-07-26T13:26:15.417Z,52.40
2017-07-26T13:28:43.495Z,52.20
2017-07-26T13:31:11.554Z,51.50
2017-07-26T13:33:39.626Z,51.30
2017-07-26T13:36:07.743Z,50.80
2017-07-26T13:38:35.785Z,50.80
2017-07-26T13:41:03.877Z,51.70
2017-07-26T13:43:31.944Z,51.80
2017-07-26T13:45:59.998Z,53.10
2017-07-26T13:48:28.040Z,52.50
2017-07-26T13:50:56.124Z,50.70
2017-07-26T13:53:24.186Z,50.30
2017-07-26T13:55:52.241Z,49.60
2017-07-26T13:58:21.092Z,50.60
2017-07-26T14:00:49.150Z,50.40
2017-07-26T14:03:17.207Z,49.60
2017-07-26T14:05:45.270Z,51.30
2017-07-26T14:08:13.347Z,49.70
2017-07-26T14:10:41.408Z,50.80
2017-07-26T14:13:09.518Z,50.80
2017-07-26T14:15:37.563Z,50.80
2017-07-26T14:18:05.613Z,48.40
2017-07-26T14:20:33.687Z,47.90
2017-07-26T14:23:01.761Z,48.30
2017-07-26T14:25:29.823Z,48.20
2017-07-26T14:27:57.894Z,49.00
2017-07-26T14:30:26.007Z,48.80
2017-07-26T14:32:54.042Z,49.40
2017-07-26T14:35:22.104Z,49.40
2017-07-26T14:37:50.178Z,49.10
2017-07-26T14:40:18.232Z,50.40
2017-07-26T14:42:46.287Z,49.80
2017-07-26T14:45:14.354Z,51.80
2017-07-26T14:47:43.195Z,50.60
2017-07-26T14:50:11.293Z,50.50
2017-07-26T14:52:39.363Z,50.60
2017-07-26T14:55:07.439Z,50.50
2017-07-26T14:57:35.507Z,51.30
2017-07-26T15:00:03.575Z,50.80
2017-07-26T15:02:31.627Z,51.20
2017-07-26T15:04:59.692Z,50.10
2017-07-26T15:07:27.787Z,51.50
2017-07-26T15:09:55.856Z,51.80
2017-07-26T15:12:23.903Z,51.90
2017-07-26T15:14:51.965Z,51.80
2017-07-26T15:17:20.023Z,52.10
2017-07-26T15:19:48.104Z,52.80
2017-07-26T15:22:16.171Z,52.20
2017-07-26T15:24:44.239Z,53.00
2017-07-26T15:27:12.317Z,53.50
2017-07-26T15:29:40.384Z,53.40
2017-07-26T15:32:08.443Z,53.30
2017-07-26T15:34:36.514Z,54.10
2017-07-26T15:37:04.579Z,55.00
2017-07-26T15:39:32.670Z,54.20
2017-07-26T15:42:00.725Z,54.80
2017-07-26T15:44:28.769Z,54.80
2017-07-26T15:46:56.838Z,52.70
2017-07-26T15:49:24.899Z,52.10
2017-07-26T15:51:53.731Z,54.10
2017-07-26T15:54:21.810Z,54.10
2017-07-26T15:56:49.889Z,54.40
2017-07-26T15:59:17.950Z,54.50
2017-07-26T16:01:46.011Z,55.00
2017-07-26T16:04:14.078Z,54.60
2017-07-26T16:06:42.123Z,55.30
2017-07-26T16:09:10.187Z,55.40
2017-07-26T16:11:38.251Z,55.30
2017-07-26T16:14:06.310Z,54.70
2017-07-26T16:16:34.378Z,54.30
2017-07-26T16:19:02.456Z,54.60
2017-07-26T16:21:30.526Z,53.80
2017-07-26T16:23:58.603Z,54.20
2017-07-26T16:26:26.675Z,54.50
2017-07-26T16:28:55.559Z,55.60
2017-07-26T16:31:23.613Z,55.60
2017-07-26T16:33:51.675Z,53.80
2017-07-26T16:36:19.739Z,54.70
2017-07-26T16:38:47.807Z,54.70
2017-07-26T16:41:15.855Z,55.20
2017-07-26T16:43:43.955Z,54.10
2017-07-26T16:46:12.782Z,54.00
2017-07-26T16:48:40.842Z,53.90
2017-07-26T16:51:08.923Z,53.60
2017-07-26T16:53:36.999Z,54.40
2017-07-26T16:56:05.053Z,56.10
2017-07-26T16:58:33.126Z,55.60
2017-07-26T17:01:01.211Z,56.10
2017-07-26T17:03:29.274Z,56.30
2017-07-26T17:05:57.345Z,54.80
2017-07-26T17:08:25.410Z,55.40
2017-07-26T17:10:53.480Z,55.80
2017-07-26T17:13:21.569Z,54.80
2017-07-26T17:15:49.607Z,55.60
2017-07-26T17:18:18.433Z,56.30
2017-07-26T17:20:46.482Z,56.20
2017-07-26T17:23:14.570Z,56.10
2017-07-26T17:25:42.663Z,55.40
2017-07-26T17:28:10.722Z,56.00
2017-07-26T17:30:38.810Z,55.90
2017-07-26T17:33:06.870Z,55.90
2017-07-26T17:38:09.412Z,56.20
2017-07-26T17:40:38.278Z,57.60
2017-07-26T17:43:06.319Z,57.60
2017-07-26T17:45:34.391Z,57.80
2017-07-26T17:48:02.478Z,57.80
2017-07-26T17:50:30.540Z,58.00
2017-07-26T17:52:58.611Z,58.60
2017-07-26T17:55:26.700Z,58.80
2017-07-26T17:57:54.758Z,59.40
2017-07-26T18:00:22.807Z,59.10
2017-07-26T18:02:50.879Z,59.40
2017-07-26T18:05:18.944Z,59.40
2017-07-26T18:07:47.012Z,59.40
2017-07-26T18:10:15.073Z,59.40
2017-07-26T18:12:43.126Z,59.50
2017-07-26T18:15:11.228Z,59.30
2017-07-26T18:17:39.291Z,60.00
2017-07-26T18:20:07.356Z,59.70
2017-07-26T18:22:35.439Z,59.90
2017-07-26T18:25:03.503Z,60.00
2017-07-26T18:27:31.632Z,60.50
2017-07-26T18:30:00.461Z,61.60
2017-07-26T18:32:28.529Z,61.60
2017-07-26T18:34:56.644Z,63.20
2017-07-26T18:37:24.702Z,62.50
2017-07-26T18:39:52.763Z,62.10
2017-07-26T18:42:20.832Z,62.70
2017-07-26T18:44:49.630Z,62.60
2017-07-26T18:47:17.677Z,62.80
2017-07-26T18:49:45.744Z,63.50
2017-07-26T18:52:14.586Z,63.50
2017-07-26T18:54:42.646Z,63.40
2017-07-26T18:57:10.719Z,62.60
2017-07-26T18:59:38.771Z,64.10
2017-07-26T19:02:06.811Z,64.40
2017-07-26T19:04:35.664Z,65.70
2017-07-26T19:07:03.728Z,65.70
2017-07-26T19:09:32.339Z,65.40
2017-07-26T19:12:00.427Z,63.30
2017-07-26T19:14:28.496Z,64.90
2017-07-26T19:16:56.570Z,63.40
2017-07-26T19:19:25.412Z,64.20
2017-07-26T19:21:53.467Z,64.00
2017-07-26T19:24:21.560Z,64.40
2017-07-26T19:26:49.619Z,64.80
2017-07-26T19:29:17.675Z,63.10
2017-07-26T19:31:45.763Z,65.20
2017-07-26T19:34:13.854Z,65.80
2017-07-26T19:36:41.911Z,66.10
2017-07-26T19:39:10.066Z,65.30
2017-07-26T19:41:38.874Z,65.50
2017-07-26T19:44:06.937Z,65.50
2017-07-26T19:46:34.990Z,66.10
2017-07-26T19:49:03.082Z,64.30
2017-07-26T19:51:31.163Z,65.30
2017-07-26T19:54:00.002Z,65.60
2017-07-26T19:56:28.059Z,65.50
2017-07-26T19:58:56.139Z,65.40
2017-07-26T20:01:24.212Z,66.20
2017-07-26T20:03:52.286Z,67.00
2017-07-26T20:06:20.359Z,67.40
2017-07-26T20:08:48.465Z,67.00
2017-07-26T20:11:16.537Z,66.30
2017-07-26T20:13:44.653Z,66.50
2017-07-26T20:16:12.734Z,66.80
2017-07-26T20:18:40.805Z,66.80
2017-07-26T20:21:08.851Z,67.10
2017-07-26T20:23:36.897Z,66.70
2017-07-26T20:26:04.976Z,67.30
2017-07-26T20:28:33.839Z,65.70
2017-07-26T20:31:01.918Z,65.70
2017-07-26T20:33:29.978Z,66.20
2017-07-26T20:35:58.062Z,66.00
2017-07-26T20:38:26.210Z,66.40
2017-07-26T20:40:54.268Z,66.90
2017-07-26T20:43:22.356Z,64.80
2017-07-26T20:45:50.429Z,65.30
2017-07-26T20:48:18.497Z,66.20
2017-07-26T20:50:46.578Z,66.90
2017-07-26T20:53:14.665Z,67.80
2017-07-26T20:55:42.741Z,68.10
2017-07-26T20:58:10.806Z,68.00
2017-07-26T21:00:38.890Z,67.70
2017-07-26T21:03:06.969Z,68.30
2017-07-26T21:05:35.802Z,67.60
2017-07-26T21:08:03.882Z,67.60
2017-07-26T21:10:31.979Z,67.80
2017-07-26T21:13:00.035Z,68.10
2017-07-26T21:15:28.128Z,67.70
2017-07-26T21:17:56.184Z,67.90
2017-07-26T21:20:24.258Z,68.30
2017-07-26T21:22:52.331Z,68.40
2017-07-26T21:25:20.426Z,68.90
2017-07-26T21:27:48.475Z,69.30
2017-07-26T21:30:16.554Z,69.60
2017-07-26T21:32:44.607Z,69.20
2017-07-26T21:35:12.670Z,69.10
2017-07-26T21:37:40.725Z,69.70
2017-07-26T21:40:08.783Z,70.60
2017-07-26T21:42:36.853Z,68.20
2017-07-26T21:45:04.923Z,66.80
2017-07-26T21:47:32.989Z,68.00
2017-07-26T21:50:01.043Z,65.10
2017-07-26T21:52:29.898Z,65.20
2017-07-26T21:54:57.956Z,65.00
2017-07-26T21:57:26.009Z,65.30
2017-07-26T21:59:54.173Z,65.60
2017-07-26T22:02:23.079Z,65.20
2017-07-26T22:04:51.220Z,65.10
2017-07-26T22:07:20.039Z,64.00
2017-07-26T22:09:48.095Z,63.90
2017-07-26T22:12:16.168Z,63.50
2017-07-26T22:14:44.256Z,63.50
2017-07-26T22:17:12.323Z,63.50
2017-07-26T22:19:40.383Z,63.40
2017-07-26T22:22:08.465Z,63.10
2017-07-26T22:24:36.535Z,64.50
2017-07-26T22:27:04.588Z,65.10
2017-07-26T22:29:32.684Z,65.50
2017-07-26T22:32:00.755Z,65.60
2017-07-26T22:34:28.857Z,65.10
2017-07-26T22:36:56.929Z,66.10
2017-07-26T22:39:24.986Z,65.10
2017-07-26T22:41:53.054Z,64.70
2017-07-26T22:44:21.112Z,64.40
2017-07-26T22:46:49.178Z,65.00
2017-07-26T22:49:17.251Z,65.10
2017-07-26T22:51:45.335Z,64.90
2017-07-26T22:54:13.401Z,65.00
2017-07-26T22:56:41.450Z,64.90
2017-07-26T22:59:09.524Z,65.70
2017-07-26T23:01:37.571Z,65.50
2017-07-26T23:04:05.623Z,65.20
2017-07-26T23:06:33.692Z,65.50
2017-07-26T23:09:01.757Z,65.20
2017-07-26T23:11:30.584Z,65.90
2017-07-26T23:13:58.637Z,65.80
2017-07-26T23:16:26.710Z,66.20
2017-07-26T23:18:54.786Z,66.70
2017-07-26T23:21:22.835Z,66.70
2017-07-26T23:23:50.927Z,66.40
2017-07-26T23:26:18.998Z,66.90
2017-07-26T23:28:47.091Z,67.60
2017-07-26T23:31:15.136Z,68.50
2017-07-26T23:33:43.216Z,68.70
2017-07-26T23:36:11.261Z,68.80
2017-07-26T23:38:39.323Z,68.80
2017-07-26T23:41:08.151Z,69.40
2017-07-26T23:43:36.211Z,69.20
2017-07-26T23:46:04.295Z,68.90
2017-07-26T23:48:32.363Z,69.20
2017-07-26T23:51:00.418Z,69.50
2017-07-26T23:53:28.491Z,69.40
2017-07-26T23:55:56.556Z,70.00
2017-07-26T23:58:24.623Z,71.20
